createdAt,value
2023-03-06T00:02:53.486Z,43.27
2023-03-06T00:08:00.958Z,43.33
2023-03-06T00:13:12.269Z,44.23
2023-03-06T00:18:20.572Z,47.45
2023-03-06T00:23:28.255Z,46.37
2023-03-06T00:28:37.502Z,45.27
2023-03-06T00:33:45.224Z,43.77
2023-03-06T00:38:52.253Z,46.50
2023-03-06T00:44:00.251Z,47.00
2023-03-06T00:49:07.766Z,44.93
2023-03-06T00:54:14.807Z,43.20
2023-03-06T00:59:22.246Z,43.85
2023-03-06T01:04:29.909Z,42.70
2023-03-06T01:09:37.001Z,42.85
2023-03-06T01:14:43.693Z,43.20
2023-03-06T01:19:52.593Z,42.63
2023-03-06T01:25:00.192Z,41.87
2023-03-06T01:30:08.515Z,42.67
2023-03-06T01:35:15.591Z,43.40
2023-03-06T01:40:22.360Z,45.13
2023-03-06T01:45:37.389Z,47.03
2023-03-06T01:50:45.551Z,45.57
2023-03-06T01:55:53.932Z,46.43
2023-03-06T02:01:01.861Z,46.27
2023-03-06T02:06:10.652Z,44.97
2023-03-06T02:11:22.309Z,44.40
2023-03-06T02:16:33.038Z,44.77
2023-03-06T02:21:40.350Z,44.40
2023-03-06T02:26:50.562Z,44.47
2023-03-06T02:31:58.819Z,43.42
2023-03-06T02:37:12.582Z,43.97
2023-03-06T02:42:29.271Z,47.15
2023-03-06T02:47:36.957Z,46.10
2023-03-06T02:52:43.519Z,46.53
2023-03-06T02:57:51.413Z,45.53
2023-03-06T03:02:58.891Z,44.23
2023-03-06T03:08:06.431Z,44.13
2023-03-06T03:13:14.684Z,44.10
2023-03-06T03:18:22.095Z,43.90
2023-03-06T03:23:29.647Z,43.85
2023-03-06T03:28:36.827Z,42.90
2023-03-06T03:33:44.274Z,42.37
2023-03-06T03:38:51.693Z,42.83
2023-03-06T03:43:58.620Z,42.43
2023-03-06T03:49:07.739Z,43.10
2023-03-06T03:54:14.945Z,42.27
2023-03-06T03:59:22.002Z,42.93
2023-03-06T04:04:31.368Z,41.63
2023-03-06T04:09:39.236Z,46.75
2023-03-06T04:14:46.589Z,41.37
2023-03-06T04:19:53.791Z,41.83
2023-03-06T04:25:01.527Z,41.93
2023-03-06T04:30:13.041Z,41.67
2023-03-06T04:35:21.373Z,41.45
2023-03-06T04:40:33.100Z,41.40
2023-03-06T04:45:41.209Z,41.77
2023-03-06T04:50:49.365Z,41.33
2023-03-06T04:55:56.893Z,41.73
2023-03-06T05:01:04.028Z,41.60
2023-03-06T05:06:11.368Z,41.47
2023-03-06T05:11:19.242Z,42.00
2023-03-06T05:16:26.708Z,41.60
2023-03-06T05:21:33.974Z,43.08
2023-03-06T05:26:40.725Z,43.20
2023-03-06T05:31:48.594Z,42.73
2023-03-06T05:36:55.844Z,42.37
2023-03-06T05:42:02.917Z,42.30
2023-03-06T05:47:12.769Z,42.10
2023-03-06T05:52:20.810Z,41.93
2023-03-06T05:57:28.075Z,42.85
2023-03-06T06:02:35.332Z,43.90
2023-03-06T06:07:43.430Z,49.20
2023-03-06T06:12:50.690Z,48.03
2023-03-06T06:17:58.382Z,49.93
2023-03-06T06:23:05.687Z,50.37
2023-03-06T06:28:12.609Z,46.13
2023-03-06T06:33:20.832Z,47.90
2023-03-06T06:38:28.300Z,45.57
2023-03-06T06:43:35.629Z,51.58
2023-03-06T06:48:42.615Z,52.80
2023-03-06T06:53:50.848Z,44.23
2023-03-06T06:59:15.362Z,45.47
2023-03-06T07:04:09.678Z,46.27
2023-03-06T07:09:16.752Z,45.70
2023-03-06T07:14:24.878Z,48.93
2023-03-06T07:19:33.498Z,46.45
2023-03-06T07:24:40.975Z,43.23
2023-03-06T07:29:49.414Z,43.93
2023-03-06T07:35:18.941Z,43.40
2023-03-06T07:40:13.667Z,44.00
2023-03-06T07:45:21.315Z,43.70
2023-03-06T07:55:36.943Z,42.03
2023-03-06T08:05:50.882Z,43.60
2023-03-06T08:10:57.999Z,43.13
2023-03-06T08:16:06.425Z,43.37
2023-03-06T08:21:17.228Z,43.57
2023-03-06T08:26:28.352Z,44.35
2023-03-06T08:31:39.611Z,44.35
2023-03-06T08:36:47.496Z,43.87
2023-03-06T08:41:54.080Z,43.40
2023-03-06T08:47:01.126Z,43.00
2023-03-06T08:52:11.428Z,43.33
2023-03-06T08:57:18.543Z,43.77
2023-03-06T09:02:26.126Z,44.07
2023-03-06T09:07:34.484Z,44.40
2023-03-06T09:12:50.550Z,44.70
2023-03-06T09:17:51.108Z,44.77
2023-03-06T09:22:58.685Z,44.73
2023-03-06T09:28:11.717Z,45.03
2023-03-06T09:33:13.984Z,45.80
2023-03-06T09:38:23.406Z,44.77
2023-03-06T09:43:52.259Z,44.50
2023-03-06T09:49:30.296Z,45.07
2023-03-06T09:54:45.231Z,44.25
2023-03-06T09:59:56.691Z,44.87
2023-03-06T10:05:07.815Z,44.67
2023-03-06T10:10:25.256Z,44.07
2023-03-06T10:15:39.156Z,43.23
2023-03-06T10:21:18.393Z,44.53
2023-03-06T10:31:35.773Z,45.35
2023-03-06T10:36:42.493Z,45.00
2023-03-06T10:46:56.993Z,43.77
2023-03-06T10:52:16.723Z,43.90
2023-03-06T10:57:36.192Z,43.43
2023-03-06T11:02:43.220Z,45.30
2023-03-06T11:08:02.104Z,43.50
2023-03-06T11:13:23.297Z,45.57
2023-03-06T11:18:36.800Z,44.53
2023-03-06T11:23:48.517Z,44.93
2023-03-06T11:29:28.535Z,44.53
2023-03-06T11:34:50.705Z,46.95
2023-03-06T11:40:21.223Z,44.77
2023-03-06T11:45:50.987Z,45.05
2023-03-06T11:51:08.787Z,46.43
2023-03-06T11:56:41.004Z,46.65
2023-03-06T12:02:22.360Z,46.77
2023-03-06T12:07:34.319Z,46.20
2023-03-06T12:13:02.146Z,43.63
2023-03-06T12:18:25.761Z,46.00
2023-03-06T12:23:58.510Z,45.28
2023-03-06T12:29:19.767Z,46.20
2023-03-06T12:35:05.900Z,44.95
2023-03-06T12:40:50.359Z,46.07
2023-03-06T12:46:01.518Z,44.83
2023-03-06T12:51:11.890Z,44.90
2023-03-06T12:56:22.379Z,44.43
2023-03-06T13:02:05.951Z,44.77
2023-03-06T13:07:55.959Z,44.70
2023-03-06T13:13:26.950Z,43.80
2023-03-06T13:18:38.864Z,43.42
2023-03-06T13:23:54.324Z,44.60
2023-03-06T13:29:01.236Z,45.83
2023-03-06T13:34:35.734Z,45.70
2023-03-06T13:40:05.086Z,43.93
2023-03-06T13:45:19.049Z,44.33
2023-03-06T13:50:48.842Z,45.03
2023-03-06T13:56:09.041Z,45.10
2023-03-06T14:01:31.802Z,46.47
2023-03-06T14:06:42.935Z,45.48
2023-03-06T14:11:56.517Z,45.30
2023-03-06T14:17:07.349Z,45.43
2023-03-06T14:22:20.238Z,46.17
2023-03-06T14:27:44.449Z,45.83
2023-03-06T14:32:53.941Z,45.97
2023-03-06T14:38:07.325Z,45.77
2023-03-06T14:43:27.230Z,45.17
2023-03-06T14:48:47.487Z,44.80
2023-03-06T14:53:57.179Z,45.23
2023-03-06T14:59:08.019Z,45.70
2023-03-06T15:04:44.382Z,44.73
2023-03-06T15:09:54.349Z,45.60
2023-03-06T15:15:13.621Z,45.30
2023-03-06T15:20:44.936Z,44.83
2023-03-06T15:25:58.398Z,45.67
2023-03-06T15:31:28.382Z,45.10
2023-03-06T15:36:52.200Z,45.17
2023-03-06T15:42:21.164Z,45.23
2023-03-06T15:47:28.378Z,44.77
2023-03-06T15:52:38.379Z,46.07
2023-03-06T15:58:01.044Z,46.00
2023-03-06T16:03:08.212Z,45.80
2023-03-06T16:08:16.433Z,46.30
2023-03-06T16:13:28.876Z,44.90
2023-03-06T16:18:35.769Z,45.03
2023-03-06T16:23:44.350Z,45.50
2023-03-06T16:28:52.923Z,45.53
2023-03-06T16:33:59.997Z,45.77
2023-03-06T16:39:08.104Z,46.67
2023-03-06T16:44:16.274Z,47.23
2023-03-06T16:49:27.245Z,51.47
2023-03-06T16:54:34.836Z,51.33
2023-03-06T16:59:42.526Z,49.60
2023-03-06T17:04:51.442Z,49.40
2023-03-06T17:09:58.917Z,48.70
2023-03-06T17:15:07.657Z,46.47
2023-03-06T17:20:20.969Z,48.20
2023-03-06T17:25:30.019Z,51.02
2023-03-06T17:30:37.513Z,48.83
2023-03-06T17:35:45.141Z,52.90
2023-03-06T17:40:53.442Z,56.35
2023-03-06T17:46:06.197Z,51.77
2023-03-06T17:51:14.272Z,52.57
2023-03-06T17:56:22.155Z,54.87
2023-03-06T18:01:30.742Z,57.35
2023-03-06T18:06:38.245Z,50.23
2023-03-06T18:11:45.748Z,60.07
2023-03-06T18:16:53.234Z,54.33
2023-03-06T18:22:01.072Z,57.87
2023-03-06T18:27:08.647Z,73.63
2023-03-06T18:32:16.436Z,73.87
2023-03-06T18:37:25.735Z,64.97
2023-03-06T18:42:33.203Z,93.90
2023-03-06T18:47:40.807Z,69.73
2023-03-06T18:52:49.451Z,60.47
2023-03-06T18:57:56.914Z,57.40
2023-03-06T19:03:04.827Z,53.40
2023-03-06T19:08:14.237Z,53.28
2023-03-06T19:13:21.627Z,57.33
2023-03-06T19:18:30.544Z,63.00
2023-03-06T19:23:38.788Z,56.68
2023-03-06T19:28:46.155Z,54.87
2023-03-06T19:33:54.185Z,56.10
2023-03-06T19:39:04.600Z,64.70
2023-03-06T19:44:13.472Z,107.98
2023-03-06T19:49:26.337Z,59.43
2023-03-06T19:54:35.013Z,55.53
2023-03-06T19:59:43.095Z,54.07
2023-03-06T20:04:49.947Z,54.57
2023-03-06T20:09:59.373Z,53.07
2023-03-06T20:15:08.336Z,56.83
2023-03-06T20:20:15.758Z,57.17
2023-03-06T20:25:24.756Z,59.53
2023-03-06T20:30:38.198Z,62.33
2023-03-06T20:35:45.226Z,61.70
2023-03-06T20:40:54.311Z,61.93
2023-03-06T20:46:07.249Z,72.80
2023-03-06T20:51:24.514Z,73.80
2023-03-06T20:56:34.764Z,83.42
2023-03-06T21:01:45.288Z,73.07
2023-03-06T21:06:55.946Z,68.20
2023-03-06T21:12:03.979Z,67.80
2023-03-06T21:17:12.288Z,66.47
2023-03-06T21:22:19.723Z,72.07
2023-03-06T21:27:28.276Z,67.85
2023-03-06T21:32:35.918Z,65.20
2023-03-06T21:37:43.140Z,61.17
2023-03-06T21:42:50.123Z,59.93
2023-03-06T21:48:00.460Z,61.20
2023-03-06T21:53:07.896Z,63.07
2023-03-06T21:58:15.503Z,70.95
2023-03-06T22:03:22.429Z,69.37
2023-03-06T22:08:31.098Z,68.28
2023-03-06T22:13:39.132Z,67.07
2023-03-06T22:18:51.968Z,64.87
2023-03-06T22:24:01.841Z,61.20
2023-03-06T22:29:09.300Z,62.83
2023-03-06T22:34:17.145Z,62.53
2023-03-06T22:39:25.376Z,64.40
2023-03-06T22:44:32.190Z,67.13
2023-03-06T22:49:39.889Z,65.07
2023-03-06T22:54:47.398Z,59.97
2023-03-06T22:59:54.784Z,63.03
2023-03-06T23:05:17.783Z,55.53
2023-03-06T23:10:25.565Z,50.23
2023-03-06T23:15:33.189Z,51.53
2023-03-06T23:20:45.125Z,52.87
2023-03-06T23:25:52.588Z,54.40
2023-03-06T23:31:00.309Z,53.30
2023-03-06T23:36:12.080Z,56.70
2023-03-06T23:41:22.103Z,57.38
2023-03-06T23:46:30.198Z,58.23
2023-03-06T23:51:37.005Z,59.57
2023-03-06T23:56:46.289Z,56.63
